sensor_id;sensor_type;location;lat;lon;timestamp;temperature;humidity
46754;DHT22;32500;50.620;3.400;2024-03-02T00:00:10;16.10;67.60
46754;DHT22;32500;50.620;3.400;2024-03-02T00:02:45;16.10;67.50
46754;DHT22;32500;50.620;3.400;2024-03-02T00:05:12;16.10;67.60
46754;DHT22;32500;50.620;3.400;2024-03-02T00:07:44;16.10;67.60
46754;DHT22;32500;50.620;3.400;2024-03-02T00:10:11;16.00;67.60
46754;DHT22;32500;50.620;3.400;2024-03-02T00:12:40;16.00;67.70
46754;DHT22;32500;50.620;3.400;2024-03-02T00:17:53;15.90;67.80
46754;DHT22;32500;50.620;3.400;2024-03-02T00:20:22;15.90;67.70
46754;DHT22;32500;50.620;3.400;2024-03-02T00:22:48;15.90;67.70
46754;DHT22;32500;50.620;3.400;2024-03-02T00:25:14;15.90;67.80
46754;DHT22;32500;50.620;3.400;2024-03-02T00:27:40;15.90;67.90
46754;DHT22;32500;50.620;3.400;2024-03-02T00:32:59;15.80;67.80
46754;DHT22;32500;50.620;3.400;2024-03-02T00:35:25;15.80;67.80
46754;DHT22;32500;50.620;3.400;2024-03-02T00:37:51;15.80;67.70
46754;DHT22;32500;50.620;3.400;2024-03-02T00:40:17;15.80;67.90
46754;DHT22;32500;50.620;3.400;2024-03-02T00:42:44;15.70;67.80
46754;DHT22;32500;50.620;3.400;2024-03-02T00:45:10;15.80;67.90
46754;DHT22;32500;50.620;3.400;2024-03-02T00:47:39;15.70;67.80
46754;DHT22;32500;50.620;3.400;2024-03-02T00:50:05;15.70;67.80
46754;DHT22;32500;50.620;3.400;2024-03-02T00:52:31;15.70;68.00
46754;DHT22;32500;50.620;3.400;2024-03-02T00:54:58;15.70;68.00
46754;DHT22;32500;50.620;3.400;2024-03-02T00:57:24;15.60;68.00
46754;DHT22;32500;50.620;3.400;2024-03-02T00:59:51;15.60;68.10
46754;DHT22;32500;50.620;3.400;2024-03-02T01:02:17;15.60;68.10
46754;DHT22;32500;50.620;3.400;2024-03-02T01:04:45;15.60;68.10
46754;DHT22;32500;50.620;3.400;2024-03-02T01:07:11;15.50;68.00
46754;DHT22;32500;50.620;3.400;2024-03-02T01:09:36;15.50;68.00
46754;DHT22;32500;50.620;3.400;2024-03-02T01:12:02;15.50;68.00
46754;DHT22;32500;50.620;3.400;2024-03-02T01:14:28;15.50;68.10
46754;DHT22;32500;50.620;3.400;2024-03-02T01:16:53;15.50;68.00
46754;DHT22;32500;50.620;3.400;2024-03-02T01:19:19;15.50;68.10
46754;DHT22;32500;50.620;3.400;2024-03-02T01:21:45;15.40;68.10
46754;DHT22;32500;50.620;3.400;2024-03-02T01:24:11;15.40;68.10
46754;DHT22;32500;50.620;3.400;2024-03-02T01:26:36;15.40;68.30
46754;DHT22;32500;50.620;3.400;2024-03-02T01:29:02;15.30;68.20
46754;DHT22;32500;50.620;3.400;2024-03-02T01:31:28;15.30;68.20
46754;DHT22;32500;50.620;3.400;2024-03-02T01:33:53;15.30;68.30
46754;DHT22;32500;50.620;3.400;2024-03-02T01:36:19;15.30;68.40
46754;DHT22;32500;50.620;3.400;2024-03-02T01:38:45;15.30;68.40
46754;DHT22;32500;50.620;3.400;2024-03-02T01:41:10;15.30;68.50
46754;DHT22;32500;50.620;3.400;2024-03-02T01:43:37;15.20;68.40
46754;DHT22;32500;50.620;3.400;2024-03-02T01:46:03;15.20;68.40
46754;DHT22;32500;50.620;3.400;2024-03-02T01:48:28;15.20;68.50
46754;DHT22;32500;50.620;3.400;2024-03-02T01:50:54;15.20;68.50
46754;DHT22;32500;50.620;3.400;2024-03-02T01:53:20;15.20;68.60
46754;DHT22;32500;50.620;3.400;2024-03-02T01:55:46;15.20;68.60
46754;DHT22;32500;50.620;3.400;2024-03-02T01:58:12;15.10;68.60
46754;DHT22;32500;50.620;3.400;2024-03-02T02:00:38;15.10;68.80
46754;DHT22;32500;50.620;3.400;2024-03-02T02:03:03;15.10;68.80
46754;DHT22;32500;50.620;3.400;2024-03-02T02:05:29;15.00;68.70
46754;DHT22;32500;50.620;3.400;2024-03-02T02:07:55;15.10;68.90
46754;DHT22;32500;50.620;3.400;2024-03-02T02:10:21;15.00;68.70
46754;DHT22;32500;50.620;3.400;2024-03-02T02:12:46;15.00;69.00
46754;DHT22;32500;50.620;3.400;2024-03-02T02:15:25;15.00;68.80
46754;DHT22;32500;50.620;3.400;2024-03-02T02:17:52;15.00;68.90
46754;DHT22;32500;50.620;3.400;2024-03-02T02:20:18;15.00;68.90
46754;DHT22;32500;50.620;3.400;2024-03-02T02:23:04;14.90;68.80
46754;DHT22;32500;50.620;3.400;2024-03-02T02:25:35;15.00;69.00
46754;DHT22;32500;50.620;3.400;2024-03-02T02:28:01;14.90;69.00
46754;DHT22;32500;50.620;3.400;2024-03-02T02:30:31;14.90;69.00
46754;DHT22;32500;50.620;3.400;2024-03-02T02:32:58;14.90;69.00
46754;DHT22;32500;50.620;3.400;2024-03-02T02:35:24;14.90;68.90
46754;DHT22;32500;50.620;3.400;2024-03-02T02:37:51;14.80;69.00
46754;DHT22;32500;50.620;3.400;2024-03-02T02:40:17;14.80;69.00
46754;DHT22;32500;50.620;3.400;2024-03-02T02:42:46;14.80;69.10
46754;DHT22;32500;50.620;3.400;2024-03-02T02:45:12;14.80;69.10
46754;DHT22;32500;50.620;3.400;2024-03-02T02:47:42;14.80;69.20
46754;DHT22;32500;50.620;3.400;2024-03-02T02:50:09;14.80;69.10
46754;DHT22;32500;50.620;3.400;2024-03-02T02:52:36;14.80;69.20
46754;DHT22;32500;50.620;3.400;2024-03-02T02:55:08;14.80;69.20
46754;DHT22;32500;50.620;3.400;2024-03-02T02:57:35;14.70;69.30
46754;DHT22;32500;50.620;3.400;2024-03-02T03:02:37;14.70;69.30
46754;DHT22;32500;50.620;3.400;2024-03-02T03:05:05;14.70;69.30
46754;DHT22;32500;50.620;3.400;2024-03-02T03:07:31;14.70;69.30
46754;DHT22;32500;50.620;3.400;2024-03-02T03:09:57;14.70;69.30
46754;DHT22;32500;50.620;3.400;2024-03-02T03:12:23;14.60;69.20
46754;DHT22;32500;50.620;3.400;2024-03-02T03:14:48;14.70;69.30
46754;DHT22;32500;50.620;3.400;2024-03-02T03:17:14;14.60;69.20
46754;DHT22;32500;50.620;3.400;2024-03-02T03:19:40;14.60;69.30
46754;DHT22;32500;50.620;3.400;2024-03-02T03:22:05;14.60;69.20
46754;DHT22;32500;50.620;3.400;2024-03-02T03:24:31;14.60;69.30
46754;DHT22;32500;50.620;3.400;2024-03-02T03:26:58;14.60;69.50
46754;DHT22;32500;50.620;3.400;2024-03-02T03:29:24;14.60;69.40
46754;DHT22;32500;50.620;3.400;2024-03-02T03:31:49;14.60;69.30
46754;DHT22;32500;50.620;3.400;2024-03-02T03:34:15;14.60;69.40
46754;DHT22;32500;50.620;3.400;2024-03-02T03:36:42;14.60;69.30
46754;DHT22;32500;50.620;3.400;2024-03-02T03:39:07;14.50;69.40
46754;DHT22;32500;50.620;3.400;2024-03-02T03:41:33;14.60;69.40
46754;DHT22;32500;50.620;3.400;2024-03-02T03:43:59;14.50;69.40
46754;DHT22;32500;50.620;3.400;2024-03-02T03:46:24;14.50;69.40
46754;DHT22;32500;50.620;3.400;2024-03-02T03:48:50;14.50;69.30
46754;DHT22;32500;50.620;3.400;2024-03-02T03:51:16;14.50;69.30
46754;DHT22;32500;50.620;3.400;2024-03-02T03:53:41;14.50;69.30
46754;DHT22;32500;50.620;3.400;2024-03-02T03:56:07;14.50;69.40
46754;DHT22;32500;50.620;3.400;2024-03-02T03:58:33;14.50;69.40
46754;DHT22;32500;50.620;3.400;2024-03-02T04:00:58;14.40;69.40
46754;DHT22;32500;50.620;3.400;2024-03-02T04:03:24;14.40;69.50
46754;DHT22;32500;50.620;3.400;2024-03-02T04:05:50;14.40;69.50
46754;DHT22;32500;50.620;3.400;2024-03-02T04:08:16;14.40;69.60
46754;DHT22;32500;50.620;3.400;2024-03-02T04:10:42;14.40;69.50
46754;DHT22;32500;50.620;3.400;2024-03-02T04:13:08;14.40;69.60
46754;DHT22;32500;50.620;3.400;2024-03-02T04:15:33;14.40;69.50
46754;DHT22;32500;50.620;3.400;2024-03-02T04:17:59;14.30;69.60
46754;DHT22;32500;50.620;3.400;2024-03-02T04:20:25;14.30;69.50
46754;DHT22;32500;50.620;3.400;2024-03-02T04:22:51;14.30;69.50
46754;DHT22;32500;50.620;3.400;2024-03-02T04:25:16;14.30;69.50
46754;DHT22;32500;50.620;3.400;2024-03-02T04:27:42;14.30;69.50
46754;DHT22;32500;50.620;3.400;2024-03-02T04:30:08;14.30;69.60
46754;DHT22;32500;50.620;3.400;2024-03-02T04:32:33;14.30;69.60
46754;DHT22;32500;50.620;3.400;2024-03-02T04:34:59;14.30;69.70
46754;DHT22;32500;50.620;3.400;2024-03-02T04:37:25;14.30;69.60
46754;DHT22;32500;50.620;3.400;2024-03-02T04:39:50;14.30;69.70
46754;DHT22;32500;50.620;3.400;2024-03-02T04:42:16;14.20;69.60
46754;DHT22;32500;50.620;3.400;2024-03-02T04:44:42;14.20;69.60
46754;DHT22;32500;50.620;3.400;2024-03-02T04:47:07;14.20;69.60
46754;DHT22;32500;50.620;3.400;2024-03-02T04:49:33;14.20;69.70
46754;DHT22;32500;50.620;3.400;2024-03-02T04:51:59;14.20;69.70
46754;DHT22;32500;50.620;3.400;2024-03-02T04:54:24;14.20;69.70
46754;DHT22;32500;50.620;3.400;2024-03-02T04:56:50;14.20;69.70
46754;DHT22;32500;50.620;3.400;2024-03-02T04:59:17;14.20;69.80
46754;DHT22;32500;50.620;3.400;2024-03-02T05:01:43;14.20;69.70
46754;DHT22;32500;50.620;3.400;2024-03-02T05:04:09;14.20;69.90
46754;DHT22;32500;50.620;3.400;2024-03-02T05:06:37;14.10;69.90
46754;DHT22;32500;50.620;3.400;2024-03-02T05:09:04;14.10;69.80
46754;DHT22;32500;50.620;3.400;2024-03-02T05:11:30;14.10;69.90
46754;DHT22;32500;50.620;3.400;2024-03-02T05:14:05;14.10;69.80
46754;DHT22;32500;50.620;3.400;2024-03-02T05:16:35;14.10;69.90
46754;DHT22;32500;50.620;3.400;2024-03-02T05:19:01;14.10;69.90
46754;DHT22;32500;50.620;3.400;2024-03-02T05:21:26;14.10;70.00
46754;DHT22;32500;50.620;3.400;2024-03-02T05:23:52;14.10;69.90
46754;DHT22;32500;50.620;3.400;2024-03-02T05:26:18;14.10;69.90
46754;DHT22;32500;50.620;3.400;2024-03-02T05:28:43;14.00;69.80
46754;DHT22;32500;50.620;3.400;2024-03-02T05:31:15;14.00;70.60
46754;DHT22;32500;50.620;3.400;2024-03-02T05:33:41;14.00;69.80
46754;DHT22;32500;50.620;3.400;2024-03-02T05:36:07;14.00;69.80
46754;DHT22;32500;50.620;3.400;2024-03-02T05:38:34;14.00;69.70
46754;DHT22;32500;50.620;3.400;2024-03-02T05:41:01;14.00;69.90
46754;DHT22;32500;50.620;3.400;2024-03-02T05:43:26;14.00;69.70
46754;DHT22;32500;50.620;3.400;2024-03-02T05:45:52;14.00;69.80
46754;DHT22;32500;50.620;3.400;2024-03-02T05:48:18;14.00;70.00
46754;DHT22;32500;50.620;3.400;2024-03-02T05:50:43;14.00;69.80
46754;DHT22;32500;50.620;3.400;2024-03-02T05:53:09;14.00;69.90
46754;DHT22;32500;50.620;3.400;2024-03-02T05:55:35;14.00;70.00
46754;DHT22;32500;50.620;3.400;2024-03-02T05:58:00;14.00;70.00
46754;DHT22;32500;50.620;3.400;2024-03-02T06:00:32;14.00;70.00
46754;DHT22;32500;50.620;3.400;2024-03-02T06:02:58;14.00;70.10
46754;DHT22;32500;50.620;3.400;2024-03-02T06:05:24;13.90;70.00
46754;DHT22;32500;50.620;3.400;2024-03-02T06:07:50;14.00;70.20
46754;DHT22;32500;50.620;3.400;2024-03-02T06:10:16;14.00;70.10
46754;DHT22;32500;50.620;3.400;2024-03-02T06:12:43;13.90;70.00
46754;DHT22;32500;50.620;3.400;2024-03-02T06:15:09;13.90;70.10
46754;DHT22;32500;50.620;3.400;2024-03-02T06:17:35;13.90;70.00
46754;DHT22;32500;50.620;3.400;2024-03-02T06:20:01;13.90;70.00
46754;DHT22;32500;50.620;3.400;2024-03-02T06:22:28;13.90;70.10
46754;DHT22;32500;50.620;3.400;2024-03-02T06:24:53;13.80;70.10
46754;DHT22;32500;50.620;3.400;2024-03-02T06:27:19;13.90;70.20
46754;DHT22;32500;50.620;3.400;2024-03-02T06:29:45;13.80;70.20
46754;DHT22;32500;50.620;3.400;2024-03-02T06:32:10;13.90;70.30
46754;DHT22;32500;50.620;3.400;2024-03-02T06:34:36;13.80;70.10
46754;DHT22;32500;50.620;3.400;2024-03-02T06:37:02;13.80;70.30
46754;DHT22;32500;50.620;3.400;2024-03-02T06:39:27;13.80;70.20
46754;DHT22;32500;50.620;3.400;2024-03-02T06:41:53;13.80;70.40
46754;DHT22;32500;50.620;3.400;2024-03-02T06:44:19;13.80;70.30
46754;DHT22;32500;50.620;3.400;2024-03-02T06:46:44;13.80;70.50
46754;DHT22;32500;50.620;3.400;2024-03-02T06:49:10;13.80;70.60
46754;DHT22;32500;50.620;3.400;2024-03-02T06:51:36;13.80;70.70
46754;DHT22;32500;50.620;3.400;2024-03-02T06:54:02;13.80;70.80
46754;DHT22;32500;50.620;3.400;2024-03-02T06:56:28;13.70;70.80
46754;DHT22;32500;50.620;3.400;2024-03-02T06:58:53;13.80;70.90
46754;DHT22;32500;50.620;3.400;2024-03-02T07:01:19;13.70;70.80
46754;DHT22;32500;50.620;3.400;2024-03-02T07:03:47;13.70;70.80
46754;DHT22;32500;50.620;3.400;2024-03-02T07:06:13;13.70;70.70
46754;DHT22;32500;50.620;3.400;2024-03-02T07:08:40;13.70;70.90
46754;DHT22;32500;50.620;3.400;2024-03-02T07:11:05;13.70;70.90
46754;DHT22;32500;50.620;3.400;2024-03-02T07:13:31;13.70;70.90
46754;DHT22;32500;50.620;3.400;2024-03-02T07:15:56;13.70;70.90
46754;DHT22;32500;50.620;3.400;2024-03-02T07:18:32;13.70;70.90
46754;DHT22;32500;50.620;3.400;2024-03-02T07:20:59;13.70;70.90
46754;DHT22;32500;50.620;3.400;2024-03-02T07:23:26;13.70;70.80
46754;DHT22;32500;50.620;3.400;2024-03-02T07:25:56;13.70;70.90
46754;DHT22;32500;50.620;3.400;2024-03-02T07:28:22;13.70;70.90
46754;DHT22;32500;50.620;3.400;2024-03-02T07:30:58;13.70;70.80
46754;DHT22;32500;50.620;3.400;2024-03-02T07:33:24;13.70;70.80
46754;DHT22;32500;50.620;3.400;2024-03-02T07:35:50;13.70;70.80
46754;DHT22;32500;50.620;3.400;2024-03-02T07:38:15;13.70;70.80
46754;DHT22;32500;50.620;3.400;2024-03-02T07:40:42;13.70;70.70
46754;DHT22;32500;50.620;3.400;2024-03-02T07:43:07;13.70;70.80
46754;DHT22;32500;50.620;3.400;2024-03-02T07:45:34;13.70;70.80
46754;DHT22;32500;50.620;3.400;2024-03-02T07:48:01;13.70;70.90
46754;DHT22;32500;50.620;3.400;2024-03-02T07:50:29;13.70;70.90
46754;DHT22;32500;50.620;3.400;2024-03-02T07:52:55;13.60;70.90
46754;DHT22;32500;50.620;3.400;2024-03-02T07:55:21;13.60;70.90
46754;DHT22;32500;50.620;3.400;2024-03-02T07:57:49;13.60;70.80
46754;DHT22;32500;50.620;3.400;2024-03-02T08:00:15;13.60;70.90
46754;DHT22;32500;50.620;3.400;2024-03-02T08:02:41;13.70;70.90
46754;DHT22;32500;50.620;3.400;2024-03-02T08:05:08;13.70;71.10
46754;DHT22;32500;50.620;3.400;2024-03-02T08:07:34;13.70;71.20
46754;DHT22;32500;50.620;3.400;2024-03-02T08:10:00;13.70;71.10
46754;DHT22;32500;50.620;3.400;2024-03-02T08:12:25;13.80;71.50
46754;DHT22;32500;50.620;3.400;2024-03-02T08:14:51;13.80;71.50
46754;DHT22;32500;50.620;3.400;2024-03-02T08:17:17;13.80;71.80
46754;DHT22;32500;50.620;3.400;2024-03-02T08:19:43;13.80;72.10
46754;DHT22;32500;50.620;3.400;2024-03-02T08:22:09;13.80;71.90
46754;DHT22;32500;50.620;3.400;2024-03-02T08:24:36;13.80;72.10
46754;DHT22;32500;50.620;3.400;2024-03-02T08:27:01;13.80;72.50
46754;DHT22;32500;50.620;3.400;2024-03-02T08:29:27;13.90;73.60
46754;DHT22;32500;50.620;3.400;2024-03-02T08:31:53;13.90;72.80
46754;DHT22;32500;50.620;3.400;2024-03-02T08:34:19;13.90;73.20
46754;DHT22;32500;50.620;3.400;2024-03-02T08:36:46;13.90;73.50
46754;DHT22;32500;50.620;3.400;2024-03-02T08:39:12;13.90;73.60
46754;DHT22;32500;50.620;3.400;2024-03-02T08:41:47;13.90;74.40
46754;DHT22;32500;50.620;3.400;2024-03-02T08:44:13;13.90;73.40
46754;DHT22;32500;50.620;3.400;2024-03-02T08:46:40;13.90;73.20
46754;DHT22;32500;50.620;3.400;2024-03-02T08:49:06;14.00;73.20
46754;DHT22;32500;50.620;3.400;2024-03-02T08:51:32;14.00;73.10
46754;DHT22;32500;50.620;3.400;2024-03-02T08:53:58;14.00;73.00
46754;DHT22;32500;50.620;3.400;2024-03-02T08:56:24;14.00;72.70
46754;DHT22;32500;50.620;3.400;2024-03-02T08:58:51;14.00;72.80
46754;DHT22;32500;50.620;3.400;2024-03-02T09:01:18;14.00;72.60
46754;DHT22;32500;50.620;3.400;2024-03-02T09:03:44;14.10;73.10
46754;DHT22;32500;50.620;3.400;2024-03-02T09:06:13;14.10;73.00
46754;DHT22;32500;50.620;3.400;2024-03-02T09:08:39;14.10;72.90
46754;DHT22;32500;50.620;3.400;2024-03-02T09:11:06;14.10;72.60
46754;DHT22;32500;50.620;3.400;2024-03-02T09:13:32;14.10;72.80
46754;DHT22;32500;50.620;3.400;2024-03-02T09:15:58;14.10;72.80
46754;DHT22;32500;50.620;3.400;2024-03-02T09:18:24;14.20;72.60
46754;DHT22;32500;50.620;3.400;2024-03-02T09:20:50;14.20;72.40
46754;DHT22;32500;50.620;3.400;2024-03-02T09:23:15;14.20;72.30
46754;DHT22;32500;50.620;3.400;2024-03-02T09:25:41;14.30;72.40
46754;DHT22;32500;50.620;3.400;2024-03-02T09:28:07;14.30;72.40
46754;DHT22;32500;50.620;3.400;2024-03-02T09:30:33;14.30;72.20
46754;DHT22;32500;50.620;3.400;2024-03-02T09:32:58;14.40;72.00
46754;DHT22;32500;50.620;3.400;2024-03-02T09:35:24;14.40;72.10
46754;DHT22;32500;50.620;3.400;2024-03-02T09:37:50;14.40;71.90
46754;DHT22;32500;50.620;3.400;2024-03-02T09:40:16;14.40;71.90
46754;DHT22;32500;50.620;3.400;2024-03-02T09:42:42;14.40;71.90
46754;DHT22;32500;50.620;3.400;2024-03-02T09:45:09;14.50;71.70
46754;DHT22;32500;50.620;3.400;2024-03-02T09:47:35;14.50;71.70
46754;DHT22;32500;50.620;3.400;2024-03-02T09:50:01;14.50;71.70
46754;DHT22;32500;50.620;3.400;2024-03-02T09:52:27;14.50;71.50
46754;DHT22;32500;50.620;3.400;2024-03-02T09:54:53;14.50;71.60
46754;DHT22;32500;50.620;3.400;2024-03-02T09:57:18;14.50;71.80
46754;DHT22;32500;50.620;3.400;2024-03-02T09:59:44;14.50;71.70
46754;DHT22;32500;50.620;3.400;2024-03-02T10:02:10;14.50;71.70
46754;DHT22;32500;50.620;3.400;2024-03-02T10:04:36;14.50;71.40
46754;DHT22;32500;50.620;3.400;2024-03-02T10:07:12;14.60;71.30
46754;DHT22;32500;50.620;3.400;2024-03-02T10:09:38;14.50;71.20
46754;DHT22;32500;50.620;3.400;2024-03-02T10:12:05;14.60;71.30
46754;DHT22;32500;50.620;3.400;2024-03-02T10:14:31;14.60;71.10
46754;DHT22;32500;50.620;3.400;2024-03-02T10:19:31;14.60;70.90
46754;DHT22;32500;50.620;3.400;2024-03-02T10:22:04;14.60;70.90
46754;DHT22;32500;50.620;3.400;2024-03-02T10:24:43;14.60;71.00
46754;DHT22;32500;50.620;3.400;2024-03-02T10:27:23;14.60;71.00
46754;DHT22;32500;50.620;3.400;2024-03-02T10:29:49;14.60;71.00
46754;DHT22;32500;50.620;3.400;2024-03-02T10:32:15;14.60;70.90
46754;DHT22;32500;50.620;3.400;2024-03-02T10:34:43;14.70;70.90
46754;DHT22;32500;50.620;3.400;2024-03-02T10:37:11;14.70;70.80
46754;DHT22;32500;50.620;3.400;2024-03-02T10:39:37;14.70;70.60
46754;DHT22;32500;50.620;3.400;2024-03-02T10:42:05;14.70;70.70
46754;DHT22;32500;50.620;3.400;2024-03-02T10:44:32;14.70;70.60
46754;DHT22;32500;50.620;3.400;2024-03-02T10:47:02;14.70;70.60
46754;DHT22;32500;50.620;3.400;2024-03-02T10:49:30;14.80;70.50
46754;DHT22;32500;50.620;3.400;2024-03-02T10:51:59;14.70;70.40
46754;DHT22;32500;50.620;3.400;2024-03-02T10:54:25;14.70;70.40
46754;DHT22;32500;50.620;3.400;2024-03-02T10:56:53;14.70;70.40
46754;DHT22;32500;50.620;3.400;2024-03-02T11:01:58;14.70;70.10
46754;DHT22;32500;50.620;3.400;2024-03-02T11:04:25;14.70;69.90
46754;DHT22;32500;50.620;3.400;2024-03-02T11:06:53;14.70;69.60
46754;DHT22;32500;50.620;3.400;2024-03-02T11:09:25;14.80;69.50
46754;DHT22;32500;50.620;3.400;2024-03-02T11:11:56;14.70;69.00
46754;DHT22;32500;50.620;3.400;2024-03-02T11:14:24;14.70;68.90
46754;DHT22;32500;50.620;3.400;2024-03-02T11:16:51;14.80;68.90
46754;DHT22;32500;50.620;3.400;2024-03-02T11:19:18;14.80;69.10
46754;DHT22;32500;50.620;3.400;2024-03-02T11:21:44;14.80;69.00
46754;DHT22;32500;50.620;3.400;2024-03-02T11:26:53;14.80;68.80
46754;DHT22;32500;50.620;3.400;2024-03-02T11:32:26;14.80;69.00
46754;DHT22;32500;50.620;3.400;2024-03-02T11:34:52;14.80;68.80
46754;DHT22;32500;50.620;3.400;2024-03-02T11:37:19;14.80;68.70
46754;DHT22;32500;50.620;3.400;2024-03-02T11:39:46;14.80;68.70
46754;DHT22;32500;50.620;3.400;2024-03-02T11:42:13;14.90;68.80
46754;DHT22;32500;50.620;3.400;2024-03-02T11:44:46;14.80;68.70
46754;DHT22;32500;50.620;3.400;2024-03-02T11:47:16;14.90;68.80
46754;DHT22;32500;50.620;3.400;2024-03-02T11:52:11;14.90;68.80
46754;DHT22;32500;50.620;3.400;2024-03-02T11:54:39;14.90;68.70
46754;DHT22;32500;50.620;3.400;2024-03-02T11:57:09;14.80;68.60
46754;DHT22;32500;50.620;3.400;2024-03-02T11:59:34;14.90;68.70
46754;DHT22;32500;50.620;3.400;2024-03-02T12:02:01;14.90;68.70
46754;DHT22;32500;50.620;3.400;2024-03-02T12:04:29;14.90;68.80
46754;DHT22;32500;50.620;3.400;2024-03-02T12:07:00;14.90;69.10
46754;DHT22;32500;50.620;3.400;2024-03-02T12:09:29;14.90;69.00
46754;DHT22;32500;50.620;3.400;2024-03-02T12:12:09;14.80;68.80
46754;DHT22;32500;50.620;3.400;2024-03-02T12:14:36;14.80;68.90
46754;DHT22;32500;50.620;3.400;2024-03-02T12:17:02;14.90;68.90
46754;DHT22;32500;50.620;3.400;2024-03-02T12:19:29;14.90;69.00
46754;DHT22;32500;50.620;3.400;2024-03-02T12:21:56;14.80;69.00
46754;DHT22;32500;50.620;3.400;2024-03-02T12:24:23;14.80;69.40
46754;DHT22;32500;50.620;3.400;2024-03-02T12:26:50;14.80;69.80
46754;DHT22;32500;50.620;3.400;2024-03-02T12:29:18;14.80;70.20
46754;DHT22;32500;50.620;3.400;2024-03-02T12:31:44;14.80;70.40
46754;DHT22;32500;50.620;3.400;2024-03-02T12:34:15;14.90;70.40
46754;DHT22;32500;50.620;3.400;2024-03-02T12:36:41;14.80;70.60
46754;DHT22;32500;50.620;3.400;2024-03-02T12:39:08;14.90;71.60
46754;DHT22;32500;50.620;3.400;2024-03-02T12:41:37;14.90;72.90
46754;DHT22;32500;50.620;3.400;2024-03-02T12:44:04;14.90;73.60
46754;DHT22;32500;50.620;3.400;2024-03-02T12:46:31;15.00;73.50
46754;DHT22;32500;50.620;3.400;2024-03-02T12:48:57;15.00;73.50
46754;DHT22;32500;50.620;3.400;2024-03-02T12:51:22;15.00;73.30
46754;DHT22;32500;50.620;3.400;2024-03-02T12:53:55;15.10;73.40
46754;DHT22;32500;50.620;3.400;2024-03-02T12:56:22;15.10;73.60
46754;DHT22;32500;50.620;3.400;2024-03-02T12:58:47;15.10;73.40
46754;DHT22;32500;50.620;3.400;2024-03-02T13:01:15;15.20;73.20
46754;DHT22;32500;50.620;3.400;2024-03-02T13:03:43;15.20;73.60
46754;DHT22;32500;50.620;3.400;2024-03-02T13:06:09;15.20;73.30
46754;DHT22;32500;50.620;3.400;2024-03-02T13:08:35;15.20;73.30
46754;DHT22;32500;50.620;3.400;2024-03-02T13:11:01;15.40;72.20
46754;DHT22;32500;50.620;3.400;2024-03-02T13:13:30;15.50;71.70
46754;DHT22;32500;50.620;3.400;2024-03-02T13:15:56;15.60;71.20
46754;DHT22;32500;50.620;3.400;2024-03-02T13:18:22;15.60;71.10
46754;DHT22;32500;50.620;3.400;2024-03-02T13:20:48;15.70;70.90
46754;DHT22;32500;50.620;3.400;2024-03-02T13:23:14;15.70;70.70
46754;DHT22;32500;50.620;3.400;2024-03-02T13:25:40;15.70;70.60
46754;DHT22;32500;50.620;3.400;2024-03-02T13:28:06;15.70;70.50
46754;DHT22;32500;50.620;3.400;2024-03-02T13:30:32;15.70;70.70
46754;DHT22;32500;50.620;3.400;2024-03-02T13:32:58;15.80;70.90
46754;DHT22;32500;50.620;3.400;2024-03-02T13:35:24;15.90;70.60
46754;DHT22;32500;50.620;3.400;2024-03-02T13:37:49;15.90;70.50
46754;DHT22;32500;50.620;3.400;2024-03-02T13:40:16;16.00;70.30
46754;DHT22;32500;50.620;3.400;2024-03-02T13:42:49;16.10;70.20
46754;DHT22;32500;50.620;3.400;2024-03-02T13:45:16;16.10;70.60
46754;DHT22;32500;50.620;3.400;2024-03-02T13:47:43;16.10;69.70
46754;DHT22;32500;50.620;3.400;2024-03-02T13:50:09;16.10;69.70
46754;DHT22;32500;50.620;3.400;2024-03-02T13:52:35;16.20;69.70
46754;DHT22;32500;50.620;3.400;2024-03-02T13:55:00;16.10;69.50
46754;DHT22;32500;50.620;3.400;2024-03-02T13:57:26;16.20;69.50
46754;DHT22;32500;50.620;3.400;2024-03-02T13:59:52;16.20;69.70
46754;DHT22;32500;50.620;3.400;2024-03-02T14:02:18;16.20;70.00
46754;DHT22;32500;50.620;3.400;2024-03-02T14:04:44;16.20;69.70
46754;DHT22;32500;50.620;3.400;2024-03-02T14:07:10;16.30;69.60
46754;DHT22;32500;50.620;3.400;2024-03-02T14:09:38;16.30;69.50
46754;DHT22;32500;50.620;3.400;2024-03-02T14:12:05;16.20;69.30
46754;DHT22;32500;50.620;3.400;2024-03-02T14:14:31;16.30;69.50
46754;DHT22;32500;50.620;3.400;2024-03-02T14:16:57;16.20;69.60
46754;DHT22;32500;50.620;3.400;2024-03-02T14:19:26;16.20;69.70
46754;DHT22;32500;50.620;3.400;2024-03-02T14:21:52;16.30;70.20
46754;DHT22;32500;50.620;3.400;2024-03-02T14:24:18;16.30;70.20
46754;DHT22;32500;50.620;3.400;2024-03-02T14:26:43;16.30;70.10
46754;DHT22;32500;50.620;3.400;2024-03-02T14:29:10;16.40;70.10
46754;DHT22;32500;50.620;3.400;2024-03-02T14:31:36;16.40;69.70
46754;DHT22;32500;50.620;3.400;2024-03-02T14:34:02;16.50;69.50
46754;DHT22;32500;50.620;3.400;2024-03-02T14:36:28;16.60;69.30
46754;DHT22;32500;50.620;3.400;2024-03-02T14:38:54;16.70;69.10
46754;DHT22;32500;50.620;3.400;2024-03-02T14:41:20;16.70;68.80
46754;DHT22;32500;50.620;3.400;2024-03-02T14:43:45;16.80;68.70
46754;DHT22;32500;50.620;3.400;2024-03-02T14:46:11;16.80;68.40
46754;DHT22;32500;50.620;3.400;2024-03-02T14:48:38;16.80;68.20
46754;DHT22;32500;50.620;3.400;2024-03-02T14:51:04;16.90;68.10
46754;DHT22;32500;50.620;3.400;2024-03-02T14:53:29;16.90;67.90
46754;DHT22;32500;50.620;3.400;2024-03-02T14:55:55;16.90;67.60
46754;DHT22;32500;50.620;3.400;2024-03-02T14:58:21;16.90;67.60
46754;DHT22;32500;50.620;3.400;2024-03-02T15:00:47;17.00;67.30
46754;DHT22;32500;50.620;3.400;2024-03-02T15:03:12;17.00;67.10
46754;DHT22;32500;50.620;3.400;2024-03-02T15:05:38;17.00;67.10
46754;DHT22;32500;50.620;3.400;2024-03-02T15:08:05;17.00;67.00
46754;DHT22;32500;50.620;3.400;2024-03-02T15:10:32;17.10;67.00
46754;DHT22;32500;50.620;3.400;2024-03-02T15:12:58;17.10;66.80
46754;DHT22;32500;50.620;3.400;2024-03-02T15:15:24;17.10;66.80
46754;DHT22;32500;50.620;3.400;2024-03-02T15:17:49;17.10;66.70
46754;DHT22;32500;50.620;3.400;2024-03-02T15:20:16;17.10;66.70
46754;DHT22;32500;50.620;3.400;2024-03-02T15:22:41;17.00;66.60
46754;DHT22;32500;50.620;3.400;2024-03-02T15:25:07;17.10;66.40
46754;DHT22;32500;50.620;3.400;2024-03-02T15:27:33;17.10;66.50
46754;DHT22;32500;50.620;3.400;2024-03-02T15:29:58;17.00;66.60
46754;DHT22;32500;50.620;3.400;2024-03-02T15:32:24;17.10;66.50
46754;DHT22;32500;50.620;3.400;2024-03-02T15:34:55;17.10;66.50
46754;DHT22;32500;50.620;3.400;2024-03-02T15:37:20;17.00;66.50
46754;DHT22;32500;50.620;3.400;2024-03-02T15:39:46;17.00;66.50
46754;DHT22;32500;50.620;3.400;2024-03-02T15:42:12;17.00;66.50
46754;DHT22;32500;50.620;3.400;2024-03-02T15:44:38;17.00;66.40
46754;DHT22;32500;50.620;3.400;2024-03-02T15:47:05;16.90;66.50